createdAt,value
2022-10-19T00:05:31.964Z,101519.16
2022-10-19T00:12:17.436Z,101555.31
2022-10-19T00:19:09.100Z,101545.38
2022-10-19T00:26:01.115Z,101543.59
2022-10-19T00:32:46.579Z,101538.34
2022-10-19T00:39:34.559Z,101538.84
2022-10-19T00:46:19.945Z,101533.44
2022-10-19T00:53:06.458Z,101535.41
2022-10-19T00:59:55.115Z,101526.09
2022-10-19T01:06:42.055Z,101515.78
2022-10-19T01:13:44.275Z,101515.13
2022-10-19T01:20:59.884Z,101503.19
2022-10-19T01:28:03.195Z,101502.34
2022-10-19T01:34:57.580Z,101502.19
2022-10-19T01:41:52.848Z,101498.75
2022-10-19T01:48:41.973Z,101486.63
2022-10-19T01:55:31.000Z,101488.44
2022-10-19T02:02:18.593Z,101481.41
2022-10-19T02:09:04.039Z,101479.59
2022-10-19T02:15:57.440Z,101439.91
2022-10-19T02:22:43.569Z,101472.25
2022-10-19T02:29:29.033Z,101473.56
2022-10-19T02:36:17.174Z,101459.50
2022-10-19T02:43:08.576Z,101467.34
2022-10-19T03:03:44.682Z,101462.16
2022-10-19T03:10:30.045Z,101467.50
2022-10-19T03:17:15.675Z,101468.66
2022-10-19T03:24:04.841Z,101457.69
2022-10-19T03:30:52.177Z,101461.63
2022-10-19T03:37:37.709Z,101453.28
2022-10-19T03:44:25.726Z,101460.66
2022-10-19T03:51:13.439Z,101464.91
2022-10-19T03:57:58.784Z,101459.84
2022-10-19T04:04:46.733Z,101446.91
2022-10-19T04:11:35.125Z,101443.31
2022-10-19T04:18:20.530Z,101444.28
2022-10-19T04:25:14.021Z,101432.03
2022-10-19T04:31:59.416Z,101438.25
2022-10-19T04:38:44.947Z,101434.50
2022-10-19T04:45:33.019Z,101440.38
2022-10-19T04:52:19.013Z,101447.28
2022-10-19T04:59:04.968Z,101443.00
2022-10-19T05:05:53.637Z,101431.06
2022-10-19T05:12:40.075Z,101428.91
2022-10-19T05:19:25.469Z,101432.16
2022-10-19T05:26:17.369Z,101428.41
2022-10-19T05:33:03.110Z,101412.81
2022-10-19T05:39:48.513Z,101317.31
2022-10-19T05:46:37.590Z,101415.00
2022-10-19T05:53:22.977Z,101414.69
2022-10-19T06:00:09.756Z,101417.31
2022-10-19T06:06:59.753Z,101415.06
2022-10-19T06:13:47.426Z,101422.09
2022-10-19T06:20:32.777Z,101415.53
2022-10-19T06:27:20.794Z,101425.50
2022-10-19T06:34:06.887Z,101434.00
2022-10-19T06:40:52.261Z,101434.31
2022-10-19T06:47:40.907Z,101401.63
2022-10-19T06:54:26.825Z,101441.69
2022-10-19T07:01:15.495Z,101393.59
2022-10-19T07:08:03.610Z,101440.03
2022-10-19T07:14:49.040Z,101458.66
2022-10-19T07:21:40.779Z,101456.69
2022-10-19T07:28:28.787Z,101441.28
2022-10-19T07:35:14.160Z,101460.25
2022-10-19T07:41:59.474Z,101476.88
2022-10-19T07:48:48.332Z,101462.66
2022-10-19T07:55:33.680Z,101468.50
2022-10-19T08:02:20.998Z,101478.31
2022-10-19T08:09:11.311Z,101459.81
2022-10-19T08:16:01.005Z,101457.47
2022-10-19T08:22:46.921Z,101472.03
2022-10-19T08:29:35.163Z,101460.41
2022-10-19T08:36:21.781Z,101455.88
2022-10-19T08:43:18.756Z,101458.31
2022-10-19T08:50:18.033Z,101436.94
2022-10-19T08:57:15.801Z,101435.81
2022-10-19T09:04:07.753Z,101429.47
2022-10-19T09:10:57.880Z,101329.13
2022-10-19T09:17:43.229Z,101425.78
2022-10-19T09:24:36.852Z,101435.44
2022-10-19T09:31:31.834Z,101426.31
2022-10-19T09:38:19.881Z,101430.25
2022-10-19T09:45:16.527Z,101436.94
2022-10-19T09:52:04.737Z,101429.09
2022-10-19T09:58:54.860Z,101427.91
2022-10-19T10:05:42.584Z,101426.38
2022-10-19T10:12:31.013Z,101419.66
2022-10-19T10:19:22.237Z,101411.63
2022-10-19T10:26:19.483Z,101421.78
2022-10-19T10:33:16.021Z,101422.97
2022-10-19T10:40:25.095Z,101375.13
2022-10-19T10:47:20.467Z,101430.31
2022-10-19T10:54:27.700Z,101419.56
2022-10-19T11:01:23.742Z,101417.91
2022-10-19T11:08:23.968Z,101401.88
2022-10-19T11:15:23.841Z,101397.97
2022-10-19T11:22:24.954Z,101391.03
2022-10-19T11:29:46.576Z,101381.97
2022-10-19T11:36:51.841Z,101373.94
2022-10-19T11:43:49.357Z,101342.47
2022-10-19T11:50:53.863Z,101332.00
2022-10-19T11:57:55.830Z,101338.75
2022-10-19T12:04:55.393Z,101255.63
2022-10-19T12:11:59.804Z,101324.25
2022-10-19T12:18:52.238Z,101291.84
2022-10-19T12:25:40.961Z,101313.38
2022-10-19T12:32:28.594Z,101307.00
2022-10-19T12:39:27.686Z,101297.38
2022-10-19T12:46:27.215Z,101156.84
2022-10-19T13:00:38.110Z,101289.88
2022-10-19T13:07:24.445Z,101291.72
2022-10-19T13:14:15.680Z,101276.53
2022-10-19T13:21:03.900Z,101254.72
2022-10-19T13:27:50.640Z,101237.88
2022-10-19T13:34:36.215Z,101231.38
2022-10-19T13:41:27.847Z,101230.41
2022-10-19T13:48:24.841Z,101219.03
2022-10-19T13:55:46.559Z,101209.06
2022-10-19T14:03:06.627Z,101213.50
2022-10-19T14:10:13.418Z,101165.56
2022-10-19T14:17:03.857Z,101203.47
2022-10-19T14:23:53.245Z,101211.75
2022-10-19T14:30:40.036Z,101109.59
2022-10-19T14:37:28.715Z,101225.66
2022-10-19T14:44:39.738Z,101200.09
2022-10-19T14:51:37.958Z,101150.34
2022-10-19T14:58:27.157Z,101192.28
2022-10-19T15:05:24.775Z,101185.66
2022-10-19T15:12:16.579Z,101168.19
2022-10-19T15:19:07.408Z,101168.69
2022-10-19T15:26:09.667Z,101154.69
2022-10-19T15:33:17.680Z,101148.38
2022-10-19T15:40:03.066Z,101156.59
2022-10-19T15:47:18.884Z,101137.44
2022-10-19T15:54:06.497Z,101136.50
2022-10-19T16:00:51.956Z,101136.38
2022-10-19T16:07:43.383Z,101121.72
2022-10-19T16:14:31.960Z,101111.00
2022-10-19T16:21:22.230Z,101131.13
2022-10-19T16:28:10.265Z,101114.88
2022-10-19T16:34:55.647Z,101052.00
2022-10-19T16:41:41.071Z,101126.69
2022-10-19T16:48:29.169Z,101109.56
2022-10-19T16:55:15.142Z,101111.06
2022-10-19T17:02:00.525Z,101119.06
2022-10-19T17:09:29.921Z,101113.78
2022-10-19T17:15:55.805Z,101113.47
2022-10-19T17:22:41.112Z,101110.03
2022-10-19T17:29:29.128Z,101110.31
2022-10-19T17:36:18.895Z,101009.94
2022-10-19T17:43:05.051Z,101113.91
2022-10-19T17:49:53.073Z,101100.53
2022-10-19T17:56:41.794Z,101089.84
2022-10-19T18:03:28.792Z,101078.63
2022-10-19T18:10:16.804Z,101080.47
2022-10-19T18:17:03.303Z,101081.09
2022-10-19T18:23:49.037Z,101099.03
2022-10-19T18:30:39.225Z,101084.00
2022-10-19T18:37:24.613Z,101051.00
2022-10-19T18:44:13.922Z,101060.25
2022-10-19T18:51:06.801Z,101045.78
2022-10-19T18:57:52.187Z,101039.91
2022-10-19T19:04:39.513Z,101024.00
2022-10-19T19:11:31.740Z,101038.22
2022-10-19T19:18:19.773Z,101040.66
2022-10-19T19:25:05.229Z,101032.56
2022-10-19T19:31:53.495Z,101052.56
2022-10-19T19:38:39.623Z,101041.16
2022-10-19T19:45:24.976Z,101050.00
2022-10-19T19:52:13.142Z,101026.72
2022-10-19T19:59:00.119Z,101021.97
2022-10-19T20:05:46.817Z,101037.16
2022-10-19T20:12:34.803Z,101035.84
2022-10-19T20:19:20.224Z,101029.63
2022-10-19T20:26:09.022Z,101035.69
2022-10-19T20:32:59.737Z,101027.53
2022-10-19T20:39:45.098Z,101040.09
2022-10-19T20:46:32.561Z,101034.88
2022-10-19T20:53:20.595Z,101025.25
2022-10-19T21:00:06.345Z,100990.66
2022-10-19T21:06:53.510Z,100911.44
2022-10-19T21:13:41.509Z,101027.31
2022-10-19T21:20:26.868Z,101009.84
2022-10-19T21:27:14.200Z,101016.88
2022-10-19T21:34:02.212Z,101003.97
2022-10-19T21:40:47.589Z,101001.69
2022-10-19T21:47:33.437Z,100998.94
2022-10-19T21:54:24.843Z,100978.25
2022-10-19T22:01:11.587Z,100982.16
2022-10-19T22:07:56.766Z,100973.72
2022-10-19T22:14:45.315Z,100968.16
2022-10-19T22:21:33.115Z,100974.69
2022-10-19T22:28:18.523Z,100948.44
2022-10-19T22:35:07.946Z,100941.13
2022-10-19T22:41:53.315Z,100959.69
2022-10-19T22:48:38.689Z,100945.19
2022-10-19T22:55:26.649Z,100928.91
2022-10-19T23:02:12.012Z,100862.13
2022-10-19T23:08:57.798Z,100899.56
2022-10-19T23:15:46.106Z,100873.03
2022-10-19T23:22:31.460Z,100858.38
2022-10-19T23:29:17.453Z,100817.94
2022-10-19T23:36:11.173Z,100861.88
2022-10-19T23:42:56.537Z,100854.19
2022-10-19T23:49:41.939Z,100863.47
2022-10-19T23:56:32.565Z,100867.69
